createdAt,value
2023-03-27T00:00:52.390Z,58.75
2023-03-27T00:01:51.721Z,65.19
2023-03-27T00:02:51.862Z,58.22
2023-03-27T00:03:51.850Z,58.10
2023-03-27T00:04:51.670Z,58.11
2023-03-27T00:05:51.696Z,57.94
2023-03-27T00:06:51.690Z,57.95
2023-03-27T00:07:51.668Z,58.00
2023-03-27T00:08:51.667Z,58.16
2023-03-27T00:09:51.645Z,58.03
2023-03-27T00:10:51.635Z,58.16
2023-03-27T00:11:51.667Z,58.07
2023-03-27T00:12:51.624Z,60.60
2023-03-27T00:13:51.634Z,58.23
2023-03-27T00:14:51.649Z,58.52
2023-03-27T00:15:51.612Z,63.69
2023-03-27T00:16:51.630Z,58.96
2023-03-27T00:17:51.624Z,58.16
2023-03-27T00:18:51.680Z,60.16
2023-03-27T00:19:51.573Z,61.89
2023-03-27T00:20:51.594Z,63.67
2023-03-27T00:21:51.580Z,58.40
2023-03-27T00:22:51.577Z,61.94
2023-03-27T00:23:51.600Z,58.15
2023-03-27T00:24:52.555Z,58.32
2023-03-27T00:25:51.528Z,61.15
2023-03-27T00:26:51.601Z,58.22
2023-03-27T00:27:51.524Z,61.16
2023-03-27T00:28:51.528Z,58.31
2023-03-27T00:29:51.521Z,58.26
2023-03-27T00:30:51.568Z,58.32
2023-03-27T00:31:51.542Z,58.35
2023-03-27T00:32:51.564Z,58.39
2023-03-27T00:33:51.493Z,65.11
2023-03-27T00:34:51.547Z,59.87
2023-03-27T00:35:51.566Z,62.63
2023-03-27T00:36:51.498Z,60.69
2023-03-27T00:37:51.553Z,62.74
2023-03-27T00:38:51.481Z,64.33
2023-03-27T00:39:51.592Z,58.36
2023-03-27T00:40:51.477Z,58.36
2023-03-27T00:41:51.437Z,61.76
2023-03-27T00:42:51.441Z,60.66
2023-03-27T00:43:51.426Z,62.00
2023-03-27T00:44:51.435Z,64.35
2023-03-27T00:45:51.501Z,59.51
2023-03-27T00:46:51.420Z,58.24
2023-03-27T00:47:51.478Z,58.39
2023-03-27T00:48:51.465Z,58.28
2023-03-27T00:49:51.432Z,58.30
2023-03-27T00:50:51.383Z,58.29
2023-03-27T00:51:51.388Z,58.22
2023-03-27T00:52:51.376Z,58.24
2023-03-27T00:53:51.368Z,58.33
2023-03-27T00:54:51.430Z,58.33
2023-03-27T00:55:51.401Z,58.20
2023-03-27T00:56:51.368Z,66.72
2023-03-27T00:57:51.336Z,59.95
2023-03-27T00:58:51.386Z,58.33
2023-03-27T00:59:51.368Z,58.41
2023-03-27T01:00:51.326Z,58.43
2023-03-27T01:01:51.389Z,58.38
2023-03-27T01:02:51.390Z,58.41
2023-03-27T01:03:51.469Z,58.38
2023-03-27T01:04:51.321Z,58.41
2023-03-27T01:05:51.318Z,60.62
2023-03-27T01:06:51.290Z,63.04
2023-03-27T01:08:00.079Z,58.36
2023-03-27T01:08:52.320Z,58.40
2023-03-27T01:09:51.272Z,58.40
2023-03-27T01:10:51.280Z,58.51
2023-03-27T01:11:51.264Z,58.44
2023-03-27T01:12:51.229Z,61.53
2023-03-27T01:13:51.256Z,58.39
2023-03-27T01:14:51.272Z,61.59
2023-03-27T01:15:51.284Z,58.33
2023-03-27T01:16:51.229Z,60.17
2023-03-27T01:17:51.234Z,66.88
2023-03-27T01:18:51.231Z,61.85
2023-03-27T01:19:51.183Z,58.35
2023-03-27T01:20:51.906Z,58.36
2023-03-27T01:21:51.185Z,65.98
2023-03-27T01:22:51.180Z,61.81
2023-03-27T01:24:00.253Z,58.35
2023-03-27T01:24:52.199Z,58.54
2023-03-27T01:25:51.154Z,61.54
2023-03-27T01:26:51.179Z,58.51
2023-03-27T01:27:51.166Z,58.48
2023-03-27T01:28:51.177Z,58.43
2023-03-27T01:29:51.133Z,58.38
2023-03-27T01:30:51.122Z,60.93
2023-03-27T01:31:51.218Z,58.35
2023-03-27T01:32:51.221Z,64.06
2023-03-27T01:33:51.125Z,58.51
2023-03-27T01:35:01.792Z,58.36
2023-03-27T01:35:52.158Z,65.17
2023-03-27T01:36:51.100Z,58.35
2023-03-27T01:37:51.088Z,60.81
2023-03-27T01:38:51.092Z,59.62
2023-03-27T01:39:51.050Z,58.98
2023-03-27T01:40:51.065Z,58.42
2023-03-27T01:41:51.079Z,58.50
2023-03-27T01:42:51.048Z,58.58
2023-03-27T01:43:51.085Z,61.85
2023-03-27T01:44:51.112Z,61.25
2023-03-27T01:45:51.104Z,59.18
2023-03-27T01:46:51.093Z,60.96
2023-03-27T01:47:51.072Z,61.83
2023-03-27T01:48:51.070Z,58.53
2023-03-27T01:49:51.002Z,64.11
2023-03-27T01:50:51.006Z,58.60
2023-03-27T01:51:51.010Z,61.61
2023-03-27T01:52:50.980Z,58.57
2023-03-27T01:53:50.957Z,58.61
2023-03-27T01:54:50.955Z,62.28
2023-03-27T01:55:51.000Z,58.80
2023-03-27T01:56:51.015Z,58.67
2023-03-27T01:57:50.957Z,58.72
2023-03-27T01:58:51.034Z,62.40
2023-03-27T01:59:50.938Z,60.34
2023-03-27T02:00:53.051Z,61.85
2023-03-27T02:01:50.953Z,58.45
2023-03-27T02:02:50.906Z,58.62
2023-03-27T02:03:50.921Z,58.65
2023-03-27T02:04:50.962Z,60.14
2023-03-27T02:05:50.914Z,62.47
2023-03-27T02:06:50.969Z,58.51
2023-03-27T02:07:50.916Z,61.49
2023-03-27T02:08:50.874Z,58.58
2023-03-27T02:09:50.871Z,58.82
2023-03-27T02:10:50.879Z,60.37
2023-03-27T02:11:50.879Z,62.25
2023-03-27T02:12:50.887Z,59.25
2023-03-27T02:13:51.814Z,63.68
2023-03-27T02:14:50.850Z,58.78
2023-03-27T02:15:50.914Z,61.11
2023-03-27T02:16:50.813Z,59.24
2023-03-27T02:17:50.922Z,63.10
2023-03-27T02:18:50.883Z,65.68
2023-03-27T02:19:50.865Z,58.47
2023-03-27T02:20:50.813Z,58.46
2023-03-27T02:21:50.790Z,62.58
2023-03-27T02:22:50.810Z,59.96
2023-03-27T02:23:50.810Z,58.66
2023-03-27T02:24:50.765Z,63.44
2023-03-27T02:25:50.826Z,59.02
2023-03-27T02:26:50.823Z,65.65
2023-03-27T02:27:50.764Z,60.94
2023-03-27T02:28:50.805Z,58.51
2023-03-27T02:29:50.749Z,58.59
2023-03-27T02:31:06.997Z,64.65
2023-03-27T02:31:51.781Z,62.57
2023-03-27T02:32:50.751Z,61.98
2023-03-27T02:33:50.742Z,61.30
2023-03-27T02:34:50.717Z,60.41
2023-03-27T02:35:50.795Z,65.49
2023-03-27T02:36:50.710Z,68.37
2023-03-27T02:37:50.718Z,61.97
2023-03-27T02:38:50.716Z,66.62
2023-03-27T02:39:50.718Z,61.45
2023-03-27T02:40:50.689Z,66.91
2023-03-27T02:41:50.694Z,62.63
2023-03-27T02:42:50.667Z,64.91
2023-03-27T02:43:50.696Z,58.67
2023-03-27T02:44:50.662Z,62.22
2023-03-27T02:45:50.725Z,64.66
2023-03-27T02:46:50.664Z,61.78
2023-03-27T02:47:50.695Z,61.40
2023-03-27T02:48:50.619Z,68.80
2023-03-27T02:49:50.615Z,62.86
2023-03-27T02:50:50.623Z,67.63
2023-03-27T02:51:50.657Z,69.58
2023-03-27T02:52:50.619Z,62.44
2023-03-27T02:53:50.609Z,61.17
2023-03-27T02:54:50.617Z,62.22
2023-03-27T02:55:50.605Z,64.07
2023-03-27T02:56:50.582Z,65.10
2023-03-27T02:57:52.063Z,67.24
2023-03-27T02:58:50.669Z,61.20
2023-03-27T02:59:50.577Z,66.35
2023-03-27T03:00:51.360Z,65.46
2023-03-27T03:01:50.585Z,69.55
2023-03-27T03:02:50.616Z,68.28
2023-03-27T03:03:50.582Z,63.18
2023-03-27T03:04:50.514Z,67.91
2023-03-27T03:05:50.534Z,61.77
2023-03-27T03:06:50.525Z,64.81
2023-03-27T03:07:50.545Z,63.03
2023-03-27T03:08:50.525Z,66.99
2023-03-27T03:09:50.518Z,63.91
2023-03-27T03:10:50.526Z,67.06
2023-03-27T03:11:50.485Z,67.25
2023-03-27T03:12:50.520Z,64.98
2023-03-27T03:13:50.493Z,67.18
2023-03-27T03:14:50.477Z,66.52
2023-03-27T03:15:50.696Z,70.68
2023-03-27T03:16:50.497Z,69.56
2023-03-27T03:17:50.479Z,66.13
2023-03-27T03:18:51.433Z,63.65
2023-03-27T03:19:50.447Z,68.37
2023-03-27T03:20:50.453Z,67.81
2023-03-27T03:21:50.478Z,63.51
2023-03-27T03:22:50.467Z,67.83
2023-03-27T03:23:58.196Z,68.87
2023-03-27T03:24:51.433Z,64.64
2023-03-27T03:25:50.409Z,65.28
2023-03-27T03:26:50.440Z,67.77
2023-03-27T03:27:50.405Z,71.20
2023-03-27T03:29:00.111Z,69.68
2023-03-27T03:29:51.377Z,67.16
2023-03-27T03:30:50.551Z,71.18
2023-03-27T03:31:50.377Z,69.49
2023-03-27T03:32:50.459Z,68.51
2023-03-27T03:33:50.343Z,71.96
2023-03-27T03:34:50.338Z,70.50
2023-03-27T03:35:51.433Z,67.31
2023-03-27T03:36:50.430Z,66.82
2023-03-27T03:37:51.064Z,66.15
2023-03-27T03:38:51.373Z,69.19
2023-03-27T03:39:50.320Z,68.00
2023-03-27T03:41:11.439Z,69.41
2023-03-27T03:41:50.338Z,73.86
2023-03-27T03:42:50.390Z,69.22
2023-03-27T03:43:50.345Z,69.19
2023-03-27T03:44:50.305Z,71.40
2023-03-27T03:45:50.327Z,71.54
2023-03-27T03:46:50.346Z,66.15
2023-03-27T03:47:50.401Z,71.33
2023-03-27T03:48:50.324Z,66.20
2023-03-27T03:49:50.353Z,67.48
2023-03-27T03:50:50.287Z,72.00
2023-03-27T03:52:04.375Z,66.87
2023-03-27T03:52:51.261Z,71.58
2023-03-27T03:53:50.277Z,72.29
2023-03-27T03:54:50.273Z,69.83
2023-03-27T03:55:50.251Z,67.34
2023-03-27T03:56:50.400Z,70.95
2023-03-27T03:57:50.333Z,68.37
2023-03-27T03:58:50.200Z,68.40
2023-03-27T03:59:50.237Z,66.21
2023-03-27T04:00:51.202Z,66.57
2023-03-27T04:01:50.260Z,71.82
2023-03-27T04:02:50.299Z,70.31
2023-03-27T04:03:50.303Z,65.38
2023-03-27T04:04:50.190Z,70.18
2023-03-27T04:05:50.170Z,69.52
2023-03-27T04:06:50.169Z,72.70
2023-03-27T04:07:50.155Z,69.12
2023-03-27T04:08:50.170Z,71.04
2023-03-27T04:09:50.175Z,72.12
2023-03-27T04:10:50.158Z,67.54
2023-03-27T04:11:50.111Z,69.55
2023-03-27T04:12:50.190Z,72.58
2023-03-27T04:13:50.401Z,72.28
2023-03-27T04:14:50.307Z,70.61
2023-03-27T04:15:50.328Z,68.48
2023-03-27T04:16:50.471Z,67.11
2023-03-27T04:17:50.423Z,68.31
2023-03-27T04:18:50.521Z,70.37
2023-03-27T04:19:50.331Z,69.54
2023-03-27T04:20:51.033Z,70.87
2023-03-27T04:21:50.147Z,71.12
2023-03-27T04:22:51.347Z,68.89
2023-03-27T04:23:50.171Z,72.41
2023-03-27T04:24:50.203Z,70.23
2023-03-27T04:25:50.213Z,68.47
2023-03-27T04:26:50.286Z,72.47
2023-03-27T04:27:50.169Z,67.64
2023-03-27T04:28:50.169Z,71.87
2023-03-27T04:29:50.146Z,69.40
2023-03-27T04:30:51.324Z,76.33
2023-03-27T04:31:50.510Z,72.99
2023-03-27T04:32:50.167Z,69.24
2023-03-27T04:33:50.556Z,73.90
2023-03-27T04:34:50.269Z,73.88
2023-03-27T04:36:06.581Z,74.77
2023-03-27T04:36:51.617Z,73.76
2023-03-27T04:37:50.091Z,71.32
2023-03-27T04:38:50.205Z,68.95
2023-03-27T04:39:51.055Z,72.31
2023-03-27T04:40:50.197Z,72.55
2023-03-27T04:41:50.077Z,74.22
2023-03-27T04:42:50.097Z,75.16
2023-03-27T04:43:50.219Z,69.86
2023-03-27T04:44:50.007Z,74.51
2023-03-27T04:45:49.938Z,72.28
2023-03-27T04:46:49.934Z,74.73
2023-03-27T04:47:50.003Z,75.29
2023-03-27T04:48:49.895Z,71.26
2023-03-27T04:49:49.906Z,69.32
2023-03-27T04:50:49.908Z,72.75
2023-03-27T04:51:49.946Z,68.65
2023-03-27T04:52:50.718Z,72.30
2023-03-27T04:53:50.929Z,74.11
2023-03-27T04:54:49.960Z,72.69
2023-03-27T04:55:49.843Z,71.43
2023-03-27T04:56:49.889Z,70.73
2023-03-27T04:57:49.838Z,72.39
2023-03-27T04:58:49.900Z,70.46
2023-03-27T04:59:50.870Z,69.56
2023-03-27T05:00:49.938Z,75.57
2023-03-27T05:01:50.033Z,68.86
2023-03-27T05:02:50.410Z,70.98
2023-03-27T05:03:49.831Z,72.61
2023-03-27T05:04:49.899Z,72.47
2023-03-27T05:05:49.818Z,68.48
2023-03-27T05:06:49.793Z,73.13
2023-03-27T05:07:49.796Z,72.87
2023-03-27T05:08:50.805Z,73.22
2023-03-27T05:09:49.844Z,74.86
2023-03-27T05:10:49.813Z,72.23
2023-03-27T05:11:49.837Z,69.87
2023-03-27T05:12:49.773Z,73.63
2023-03-27T05:13:49.754Z,72.38
2023-03-27T05:14:49.761Z,70.68
2023-03-27T05:15:49.764Z,73.08
2023-03-27T05:16:49.778Z,73.21
2023-03-27T05:17:49.764Z,72.29
2023-03-27T05:18:49.779Z,70.82
2023-03-27T05:19:49.711Z,74.23
2023-03-27T05:20:49.724Z,67.45
2023-03-27T05:21:49.692Z,66.13
2023-03-27T05:22:49.737Z,76.75
2023-03-27T05:23:49.669Z,72.52
2023-03-27T05:24:49.679Z,74.68
2023-03-27T05:26:00.182Z,75.14
2023-03-27T05:26:50.680Z,71.79
2023-03-27T05:27:49.680Z,74.23
2023-03-27T05:28:49.669Z,72.63
2023-03-27T05:29:49.646Z,71.97
2023-03-27T05:30:49.674Z,76.39
2023-03-27T05:31:49.634Z,70.99
2023-03-27T05:32:49.724Z,69.75
2023-03-27T05:33:49.649Z,75.49
2023-03-27T05:34:49.638Z,74.82
2023-03-27T05:35:49.635Z,75.06
2023-03-27T05:36:49.619Z,72.16
2023-03-27T05:37:49.649Z,73.80
2023-03-27T05:38:49.645Z,68.90
2023-03-27T05:39:49.588Z,74.90
2023-03-27T05:40:49.586Z,75.65
2023-03-27T05:41:49.599Z,73.38
2023-03-27T05:42:49.650Z,74.11
2023-03-27T05:43:51.132Z,73.06
2023-03-27T05:44:50.576Z,72.54
2023-03-27T05:45:49.657Z,72.73
2023-03-27T05:46:49.587Z,74.42
2023-03-27T05:47:49.634Z,69.29
2023-03-27T05:48:49.553Z,70.24
2023-03-27T05:49:49.516Z,72.86
2023-03-27T05:50:49.535Z,74.34
2023-03-27T05:51:49.560Z,73.94
2023-03-27T05:52:49.548Z,72.82
2023-03-27T05:53:49.548Z,75.09
2023-03-27T05:54:49.488Z,74.37
2023-03-27T05:55:49.518Z,73.27
2023-03-27T05:56:50.508Z,72.19
2023-03-27T05:57:49.496Z,74.01
2023-03-27T05:58:49.480Z,70.35
2023-03-27T05:59:49.517Z,72.38
2023-03-27T06:00:49.474Z,68.34
2023-03-27T06:01:49.451Z,71.20
2023-03-27T06:02:49.580Z,72.94
2023-03-27T06:03:49.557Z,75.79
2023-03-27T06:04:49.437Z,73.37
2023-03-27T06:05:49.432Z,75.07
2023-03-27T06:06:49.430Z,71.92
2023-03-27T06:07:49.431Z,73.68
2023-03-27T06:08:49.419Z,73.16
2023-03-27T06:09:49.420Z,72.30
2023-03-27T06:10:49.461Z,70.93
2023-03-27T06:11:49.434Z,74.46
2023-03-27T06:12:49.396Z,70.58
2023-03-27T06:13:49.436Z,74.70
2023-03-27T06:14:49.355Z,72.46
2023-03-27T06:15:49.405Z,73.36
2023-03-27T06:16:49.392Z,71.47
2023-03-27T06:17:49.427Z,72.20
2023-03-27T06:18:49.375Z,72.62
2023-03-27T06:19:49.318Z,69.45
2023-03-27T06:20:49.372Z,70.98
2023-03-27T06:21:49.330Z,75.61
2023-03-27T06:22:49.348Z,71.40
2023-03-27T06:23:49.353Z,65.78
2023-03-27T06:24:49.402Z,72.84
2023-03-27T06:25:49.349Z,73.70
2023-03-27T06:26:49.317Z,68.68
2023-03-27T06:27:49.298Z,73.34
2023-03-27T06:28:49.338Z,71.25
2023-03-27T06:29:49.293Z,74.84
2023-03-27T06:30:49.288Z,73.86
2023-03-27T06:31:49.285Z,69.24
2023-03-27T06:32:49.308Z,73.94
2023-03-27T06:33:49.282Z,74.81
2023-03-27T06:34:49.300Z,74.05
2023-03-27T06:35:53.151Z,75.89
2023-03-27T06:36:49.220Z,70.28
2023-03-27T06:37:50.836Z,75.82
2023-03-27T06:38:50.231Z,74.50
2023-03-27T06:39:49.237Z,73.91
2023-03-27T06:40:49.244Z,74.32
2023-03-27T06:41:49.297Z,69.98
2023-03-27T06:42:49.232Z,69.81
2023-03-27T06:43:49.229Z,75.54
2023-03-27T06:44:49.884Z,75.21
2023-03-27T06:45:49.224Z,69.33
2023-03-27T06:46:49.266Z,72.53
2023-03-27T06:47:54.383Z,73.60
2023-03-27T06:48:51.273Z,63.99
2023-03-27T06:49:49.237Z,71.07
2023-03-27T06:50:49.175Z,69.94
2023-03-27T06:51:49.150Z,70.38
2023-03-27T06:52:49.146Z,70.53
2023-03-27T06:53:49.131Z,69.55
2023-03-27T06:54:49.127Z,73.25
2023-03-27T06:55:49.113Z,68.09
2023-03-27T06:56:49.142Z,71.91
2023-03-27T06:57:49.140Z,72.28
2023-03-27T06:58:49.097Z,72.68
2023-03-27T06:59:49.073Z,70.10
2023-03-27T07:00:49.386Z,67.74
2023-03-27T07:01:49.181Z,75.15
2023-03-27T07:02:49.274Z,69.32
2023-03-27T07:03:49.077Z,71.05
2023-03-27T07:05:01.644Z,70.27
2023-03-27T07:05:51.949Z,71.08
2023-03-27T07:06:49.150Z,73.82
2023-03-27T07:07:50.079Z,72.32
2023-03-27T07:08:49.886Z,68.37
2023-03-27T07:09:49.078Z,69.77
2023-03-27T07:10:59.954Z,72.72
2023-03-27T07:11:51.045Z,69.93
2023-03-27T07:12:49.108Z,74.78
2023-03-27T07:13:49.372Z,69.40
2023-03-27T07:14:50.184Z,75.72
2023-03-27T07:15:49.068Z,74.13
2023-03-27T07:16:49.244Z,70.40
2023-03-27T07:17:49.524Z,74.29
2023-03-27T07:18:49.150Z,74.98
2023-03-27T07:19:49.001Z,69.59
2023-03-27T07:20:49.025Z,74.03
2023-03-27T07:21:48.939Z,75.48
2023-03-27T07:22:48.996Z,70.29
2023-03-27T07:23:49.189Z,72.53
2023-03-27T07:24:49.229Z,73.39
2023-03-27T07:25:49.203Z,69.07
2023-03-27T07:26:48.962Z,67.24
2023-03-27T07:27:48.986Z,72.37
2023-03-27T07:28:48.985Z,75.42
2023-03-27T07:29:49.081Z,73.17
2023-03-27T07:30:49.931Z,75.28
2023-03-27T07:31:56.232Z,74.33
2023-03-27T07:32:51.021Z,75.75
2023-03-27T07:33:49.973Z,72.50
2023-03-27T07:34:48.886Z,73.13
2023-03-27T07:35:48.953Z,72.94
2023-03-27T07:36:48.853Z,73.24
2023-03-27T07:37:48.872Z,75.91
2023-03-27T07:38:48.835Z,72.51
2023-03-27T07:39:48.834Z,73.28
2023-03-27T07:40:48.863Z,75.13
2023-03-27T07:41:48.853Z,67.33
2023-03-27T07:42:48.825Z,73.55
2023-03-27T07:43:48.857Z,69.19
2023-03-27T07:44:48.863Z,74.55
2023-03-27T07:45:48.864Z,74.25
2023-03-27T07:46:48.978Z,69.97
2023-03-27T07:47:48.901Z,72.54
2023-03-27T07:48:48.779Z,73.20
2023-03-27T07:49:49.442Z,70.72
2023-03-27T07:50:48.772Z,73.33
2023-03-27T07:51:48.818Z,71.73
2023-03-27T07:52:48.764Z,71.97
2023-03-27T07:53:48.770Z,66.07
2023-03-27T07:54:48.739Z,72.36
2023-03-27T07:55:48.797Z,72.39
2023-03-27T07:56:48.945Z,71.36
2023-03-27T07:58:00.825Z,72.74
2023-03-27T07:58:50.743Z,69.98
2023-03-27T07:59:48.780Z,74.03
2023-03-27T08:00:48.784Z,74.20
2023-03-27T08:01:48.724Z,70.60
2023-03-27T08:02:48.921Z,74.51
2023-03-27T08:03:48.947Z,67.55
2023-03-27T08:04:48.846Z,73.47
2023-03-27T08:05:48.671Z,74.24
2023-03-27T08:06:48.710Z,68.50
2023-03-27T08:07:48.685Z,73.04
2023-03-27T08:08:48.719Z,70.21
2023-03-27T08:09:48.680Z,70.71
2023-03-27T08:10:48.643Z,67.13
2023-03-27T08:11:48.640Z,74.58
2023-03-27T08:12:48.646Z,71.74
2023-03-27T08:13:48.669Z,70.55
2023-03-27T08:14:48.594Z,68.29
2023-03-27T08:15:48.673Z,66.69
2023-03-27T08:16:48.651Z,75.82
2023-03-27T08:17:48.611Z,72.07
2023-03-27T08:18:48.632Z,71.84
2023-03-27T08:19:48.594Z,73.69
2023-03-27T08:20:48.626Z,72.44
2023-03-27T08:21:48.590Z,71.55
2023-03-27T08:22:48.594Z,71.14
2023-03-27T08:23:48.571Z,71.20
2023-03-27T08:24:48.562Z,76.43
2023-03-27T08:25:48.655Z,73.74
2023-03-27T08:26:48.554Z,70.96
2023-03-27T08:27:48.534Z,68.09
2023-03-27T08:28:48.578Z,69.67
2023-03-27T08:29:48.749Z,68.47
2023-03-27T08:30:48.701Z,74.43
2023-03-27T08:31:49.392Z,71.37
2023-03-27T08:32:48.642Z,73.84
2023-03-27T08:33:48.896Z,67.11
2023-03-27T08:34:48.526Z,73.06
2023-03-27T08:35:48.491Z,70.80
2023-03-27T08:36:48.453Z,71.38
2023-03-27T08:37:48.462Z,71.11
2023-03-27T08:38:48.461Z,67.32
2023-03-27T08:39:48.537Z,71.18
2023-03-27T08:40:48.427Z,75.02
2023-03-27T08:41:48.462Z,71.86
2023-03-27T08:42:48.449Z,71.80
2023-03-27T08:43:48.493Z,69.91
2023-03-27T08:44:48.406Z,71.13
2023-03-27T08:45:48.452Z,70.66
2023-03-27T08:46:48.471Z,71.25
2023-03-27T08:47:48.403Z,72.09
2023-03-27T08:48:48.400Z,69.99
2023-03-27T08:49:48.422Z,69.83
2023-03-27T08:50:48.360Z,69.59
2023-03-27T08:51:48.366Z,74.08
2023-03-27T08:52:48.359Z,72.09
2023-03-27T08:53:48.358Z,73.43
2023-03-27T08:54:48.318Z,70.04
2023-03-27T08:55:48.392Z,71.72
2023-03-27T08:56:48.378Z,67.83
2023-03-27T08:57:48.361Z,68.91
2023-03-27T08:58:48.351Z,65.73
2023-03-27T08:59:48.359Z,68.57
2023-03-27T09:00:48.284Z,70.80
2023-03-27T09:01:48.314Z,76.12
2023-03-27T09:02:48.471Z,69.04
2023-03-27T09:03:48.354Z,70.90
2023-03-27T09:04:48.282Z,70.15
2023-03-27T09:05:48.285Z,72.43
2023-03-27T09:06:48.281Z,73.70
2023-03-27T09:07:48.271Z,70.18
2023-03-27T09:08:48.258Z,73.65
2023-03-27T09:09:48.265Z,70.02
2023-03-27T09:10:48.230Z,69.94
2023-03-27T09:11:48.233Z,70.76
2023-03-27T09:12:48.210Z,68.99
2023-03-27T09:13:48.286Z,69.92
2023-03-27T09:14:48.199Z,68.97
2023-03-27T09:15:48.311Z,73.85
2023-03-27T09:16:48.205Z,71.35
2023-03-27T09:17:48.208Z,74.19
2023-03-27T09:18:48.209Z,69.03
2023-03-27T09:19:48.208Z,66.33
2023-03-27T09:20:48.192Z,72.77
2023-03-27T09:21:48.294Z,71.07
2023-03-27T09:22:48.629Z,70.56
2023-03-27T09:23:48.144Z,71.67
2023-03-27T09:24:48.133Z,69.94
2023-03-27T09:25:48.145Z,72.33
2023-03-27T09:26:55.240Z,71.64
2023-03-27T09:27:50.101Z,68.82
2023-03-27T09:28:49.042Z,69.72
2023-03-27T09:29:48.096Z,72.35
2023-03-27T09:30:48.107Z,74.79
2023-03-27T09:31:48.123Z,71.34
2023-03-27T09:32:48.105Z,66.80
2023-03-27T09:33:48.062Z,73.91
2023-03-27T09:34:48.164Z,72.99
2023-03-27T09:35:48.080Z,70.51
2023-03-27T09:36:48.076Z,72.02
2023-03-27T09:37:48.060Z,70.75
2023-03-27T09:38:48.048Z,67.36
2023-03-27T09:39:48.065Z,69.65
2023-03-27T09:40:48.024Z,71.31
2023-03-27T09:44:59.696Z,67.95
2023-03-27T09:45:59.725Z,66.96
2023-03-27T09:46:59.703Z,72.71
2023-03-27T09:47:59.778Z,71.42
2023-03-27T09:48:59.710Z,71.68
2023-03-27T09:49:59.628Z,73.29
2023-03-27T09:50:59.642Z,72.95
2023-03-27T09:51:59.657Z,71.15
2023-03-27T09:52:59.595Z,68.74
2023-03-27T09:53:59.651Z,72.29
2023-03-27T09:54:59.588Z,72.51
2023-03-27T09:56:01.065Z,72.49
2023-03-27T09:56:59.681Z,73.11
2023-03-27T09:58:00.550Z,69.68
2023-03-27T09:58:59.587Z,69.27
2023-03-27T09:59:59.635Z,67.47
2023-03-27T10:00:59.708Z,72.16
2023-03-27T10:01:59.534Z,71.09
2023-03-27T10:02:59.560Z,71.90
2023-03-27T10:03:59.681Z,71.51
2023-03-27T10:04:59.717Z,72.48
2023-03-27T10:05:59.504Z,72.11
2023-03-27T10:06:59.511Z,71.20
2023-03-27T10:07:59.487Z,73.89
2023-03-27T10:08:59.818Z,73.49
2023-03-27T10:09:59.622Z,76.98
2023-03-27T10:10:59.620Z,74.48
2023-03-27T10:11:59.485Z,71.18
2023-03-27T10:12:59.539Z,74.34
2023-03-27T10:13:59.447Z,74.43
2023-03-27T10:15:01.682Z,74.06
2023-03-27T10:15:59.455Z,71.80
2023-03-27T10:16:59.460Z,72.93
2023-03-27T10:17:59.593Z,74.30
2023-03-27T10:18:59.441Z,72.35
2023-03-27T10:19:59.444Z,65.96
2023-03-27T10:20:59.599Z,69.20
2023-03-27T10:21:59.551Z,75.33
2023-03-27T10:22:59.426Z,73.96
2023-03-27T10:23:59.422Z,72.17
2023-03-27T10:24:59.396Z,74.76
2023-03-27T10:25:59.401Z,71.23
2023-03-27T10:26:59.404Z,71.90
2023-03-27T10:27:59.406Z,68.53
2023-03-27T10:28:59.406Z,72.00
2023-03-27T10:29:59.370Z,65.76
2023-03-27T10:30:59.481Z,71.08
2023-03-27T10:31:59.426Z,74.20
2023-03-27T10:32:59.378Z,73.10
2023-03-27T10:33:59.352Z,72.52
2023-03-27T10:34:59.338Z,71.64
2023-03-27T10:35:59.393Z,73.70
2023-03-27T10:36:59.323Z,70.36
2023-03-27T10:37:59.300Z,73.49
2023-03-27T10:38:59.352Z,69.56
2023-03-27T10:39:59.306Z,71.69
2023-03-27T10:41:00.324Z,71.87
2023-03-27T10:41:59.344Z,70.16
2023-03-27T10:42:59.287Z,67.87
2023-03-27T10:43:59.320Z,70.72
2023-03-27T10:44:59.276Z,71.25
2023-03-27T10:45:59.319Z,72.03
2023-03-27T10:46:59.393Z,73.61
2023-03-27T10:47:59.297Z,72.44
2023-03-27T10:48:59.218Z,73.10
2023-03-27T10:49:59.233Z,72.28
2023-03-27T10:50:59.332Z,69.08
2023-03-27T10:51:59.251Z,74.31
2023-03-27T10:52:59.272Z,70.40
2023-03-27T10:53:59.326Z,69.08
2023-03-27T10:54:59.221Z,70.63
2023-03-27T10:55:59.226Z,68.64
2023-03-27T10:56:59.295Z,71.76
2023-03-27T10:57:59.920Z,73.06
2023-03-27T10:58:59.196Z,69.97
2023-03-27T10:59:59.165Z,70.94
2023-03-27T11:00:59.406Z,68.93
2023-03-27T11:01:59.250Z,66.70
2023-03-27T11:02:59.240Z,70.72
2023-03-27T11:03:59.191Z,73.13
2023-03-27T11:04:59.143Z,74.40
2023-03-27T11:05:59.177Z,71.31
2023-03-27T11:06:59.189Z,73.88
2023-03-27T11:07:59.119Z,72.76
2023-03-27T11:08:59.121Z,74.02
2023-03-27T11:09:59.115Z,72.53
2023-03-27T11:10:59.302Z,72.42
2023-03-27T11:11:59.117Z,73.18
2023-03-27T11:12:59.236Z,73.33
2023-03-27T11:13:59.163Z,71.71
2023-03-27T11:14:59.109Z,75.78
2023-03-27T11:15:59.120Z,72.19
2023-03-27T11:16:59.153Z,73.73
2023-03-27T11:17:59.155Z,74.10
2023-03-27T11:18:59.075Z,71.61
2023-03-27T11:19:59.062Z,72.75
2023-03-27T11:20:59.156Z,71.39
2023-03-27T11:21:59.105Z,73.26
2023-03-27T11:22:59.073Z,76.00
2023-03-27T11:23:59.025Z,72.55
2023-03-27T11:24:59.001Z,70.98
2023-03-27T11:25:59.042Z,72.49
2023-03-27T11:26:59.049Z,71.91
2023-03-27T11:27:59.085Z,72.12
2023-03-27T11:28:58.991Z,70.45
2023-03-27T11:29:59.014Z,69.71
2023-03-27T11:30:59.247Z,71.97
2023-03-27T11:32:00.059Z,65.94
2023-03-27T11:32:59.037Z,68.52
2023-03-27T11:33:58.965Z,70.94
2023-03-27T11:34:58.969Z,68.35
2023-03-27T11:35:59.017Z,72.10
2023-03-27T11:36:58.945Z,72.51
2023-03-27T11:37:59.031Z,74.51
2023-03-27T11:38:58.921Z,72.43
2023-03-27T11:39:58.905Z,74.10
2023-03-27T11:40:59.128Z,74.39
2023-03-27T11:41:58.949Z,73.18
2023-03-27T11:42:58.912Z,73.48
2023-03-27T11:43:58.909Z,69.37
2023-03-27T11:44:58.931Z,71.13
2023-03-27T11:45:58.885Z,72.31
2023-03-27T11:46:58.978Z,66.39
2023-03-27T11:47:58.953Z,74.50
2023-03-27T11:48:58.863Z,71.14
2023-03-27T11:49:58.884Z,73.60
2023-03-27T11:50:59.240Z,70.73
2023-03-27T11:51:58.831Z,66.38
2023-03-27T11:52:58.844Z,75.47
2023-03-27T11:53:58.839Z,70.86
2023-03-27T11:54:58.820Z,71.18
2023-03-27T11:55:58.842Z,73.45
2023-03-27T11:56:58.824Z,70.78
2023-03-27T11:57:58.867Z,74.82
2023-03-27T11:58:58.815Z,71.67
2023-03-27T11:59:58.874Z,70.72
2023-03-27T12:00:58.946Z,74.02
2023-03-27T12:01:59.519Z,70.22
2023-03-27T12:02:58.952Z,71.99
2023-03-27T12:03:58.813Z,76.87
2023-03-27T12:04:58.772Z,75.29
2023-03-27T12:05:58.839Z,75.42
2023-03-27T12:07:04.330Z,73.46
2023-03-27T12:08:00.776Z,73.99
2023-03-27T12:08:58.766Z,72.18
2023-03-27T12:09:58.711Z,72.82
2023-03-27T12:10:58.944Z,71.34
2023-03-27T12:11:58.725Z,72.55
2023-03-27T12:12:58.715Z,73.73
2023-03-27T12:14:02.035Z,73.13
2023-03-27T12:14:59.696Z,72.79
2023-03-27T12:15:58.710Z,73.01
2023-03-27T12:16:58.648Z,76.32
2023-03-27T12:17:58.733Z,73.08
2023-03-27T12:19:05.827Z,72.59
2023-03-27T12:20:00.654Z,73.34
2023-03-27T12:20:58.674Z,72.64
2023-03-27T12:21:58.671Z,73.64
2023-03-27T12:22:58.696Z,71.57
2023-03-27T12:23:58.771Z,70.62
2023-03-27T12:24:59.922Z,73.73
2023-03-27T12:25:59.716Z,73.37
2023-03-27T12:26:58.708Z,73.86
2023-03-27T12:27:58.607Z,74.83
2023-03-27T12:28:58.652Z,73.63
2023-03-27T12:29:58.626Z,68.73
2023-03-27T12:30:58.795Z,68.99
2023-03-27T12:31:58.596Z,71.06
2023-03-27T12:33:00.105Z,72.63
2023-03-27T12:33:58.579Z,71.93
2023-03-27T12:34:58.592Z,72.32
2023-03-27T12:35:58.634Z,73.72
2023-03-27T12:36:59.485Z,73.41
2023-03-27T12:37:58.524Z,69.53
2023-03-27T12:38:58.598Z,73.31
2023-03-27T12:39:58.619Z,72.49
2023-03-27T12:40:58.671Z,73.39
2023-03-27T12:41:58.512Z,72.66
2023-03-27T12:42:58.522Z,72.47
2023-03-27T12:43:58.506Z,74.00
2023-03-27T12:45:00.014Z,72.36
2023-03-27T12:45:59.834Z,72.67
2023-03-27T12:46:58.513Z,72.96
2023-03-27T12:47:58.482Z,73.35
2023-03-27T12:48:58.472Z,73.68
2023-03-27T12:49:58.531Z,74.41
2023-03-27T12:50:58.678Z,74.05
2023-03-27T12:51:58.436Z,75.20
2023-03-27T12:52:58.425Z,71.44
2023-03-27T12:53:58.407Z,74.30
2023-03-27T12:54:58.417Z,73.28
2023-03-27T12:55:58.547Z,76.81